createdAt,value
2019-04-28T00:00:37.365Z,8.90
2019-04-28T00:01:42.635Z,8.90
2019-04-28T00:02:46.193Z,8.80
2019-04-28T00:03:51.482Z,8.90
2019-04-28T00:04:55.132Z,8.90
2019-04-28T00:05:58.733Z,8.90
2019-04-28T00:07:02.314Z,8.90
2019-04-28T00:08:05.998Z,8.90
2019-04-28T00:09:11.387Z,9.00
2019-04-28T00:10:15.238Z,8.90
2019-04-28T00:11:18.906Z,8.90
2019-04-28T00:12:22.954Z,8.80
2019-04-28T00:13:26.529Z,8.80
2019-04-28T00:14:31.691Z,8.80
2019-04-28T00:15:35.583Z,8.90
2019-04-28T00:16:41.095Z,8.80
2019-04-28T00:17:44.463Z,8.90
2019-04-28T00:18:48.028Z,8.80
2019-04-28T00:19:51.612Z,8.80
2019-04-28T00:21:13.126Z,8.80
2019-04-28T00:22:18.354Z,8.80
2019-04-28T00:23:23.570Z,8.80
2019-04-28T00:24:46.579Z,8.80
2019-04-28T00:26:11.107Z,8.80
2019-04-28T00:27:14.742Z,8.70
2019-04-28T00:28:18.301Z,8.80
2019-04-28T00:29:21.862Z,8.80
2019-04-28T00:30:25.428Z,8.70
2019-04-28T00:31:28.977Z,8.80
2019-04-28T00:32:32.722Z,8.70
2019-04-28T00:33:36.214Z,8.70
2019-04-28T00:34:41.225Z,8.70
2019-04-28T00:35:45.202Z,8.60
2019-04-28T00:36:51.234Z,8.60
2019-04-28T00:37:54.898Z,8.60
2019-04-28T00:38:58.464Z,8.60
2019-04-28T00:40:02.171Z,8.50
2019-04-28T00:41:05.722Z,8.40
2019-04-28T00:42:09.297Z,8.50
2019-04-28T00:43:12.894Z,8.50
2019-04-28T00:44:16.835Z,8.40
2019-04-28T00:45:21.524Z,8.40
2019-04-28T00:46:32.828Z,8.50
2019-04-28T00:47:36.419Z,8.50
2019-04-28T00:48:40.912Z,8.50
2019-04-28T00:49:47.355Z,8.50
2019-04-28T00:50:51.902Z,8.50
2019-04-28T00:51:55.505Z,8.50
2019-04-28T00:52:59.074Z,8.40
2019-04-28T00:54:02.811Z,8.30
2019-04-28T00:55:06.582Z,8.40
2019-04-28T00:56:12.056Z,8.40
2019-04-28T00:57:15.722Z,8.40
2019-04-28T00:58:20.868Z,8.50
2019-04-28T00:59:24.443Z,8.50
2019-04-28T01:00:31.337Z,8.40
2019-04-28T01:01:36.578Z,8.40
2019-04-28T01:02:41.646Z,8.50
2019-04-28T01:03:45.211Z,8.50
2019-04-28T01:04:48.774Z,8.50
2019-04-28T01:05:52.333Z,8.40
2019-04-28T01:06:55.893Z,8.30
2019-04-28T01:08:01.136Z,8.40
2019-04-28T01:09:07.443Z,8.40
2019-04-28T01:10:12.933Z,8.40
2019-04-28T01:11:16.494Z,8.40
2019-04-28T01:12:21.298Z,8.40
2019-04-28T01:13:25.089Z,8.40
2019-04-28T01:14:28.644Z,8.50
2019-04-28T01:15:51.426Z,8.50
2019-04-28T01:16:56.617Z,8.50
2019-04-28T01:18:01.815Z,8.50
2019-04-28T01:19:10.127Z,8.40
2019-04-28T01:20:16.179Z,8.50
2019-04-28T01:21:20.319Z,8.40
2019-04-28T01:22:24.161Z,8.40
2019-04-28T01:23:27.766Z,8.40
2019-04-28T01:24:31.370Z,8.40
2019-04-28T01:25:34.938Z,8.40
2019-04-28T01:26:39.216Z,8.30
2019-04-28T01:27:45.378Z,8.30
2019-04-28T01:28:49.658Z,8.40
2019-04-28T01:30:05.454Z,8.40
2019-04-28T01:31:16.470Z,8.40
2019-04-28T01:32:21.710Z,8.30
2019-04-28T01:33:26.986Z,8.40
2019-04-28T01:34:30.549Z,8.40
2019-04-28T01:35:34.123Z,8.40
2019-04-28T01:36:39.854Z,8.40
2019-04-28T01:37:43.290Z,8.40
2019-04-28T01:38:46.854Z,8.30
2019-04-28T01:39:50.487Z,8.30
2019-04-28T01:40:54.105Z,8.30
2019-04-28T01:41:59.418Z,8.20
2019-04-28T01:43:03.101Z,8.20
2019-04-28T01:44:06.667Z,8.20
2019-04-28T01:45:10.661Z,8.20
2019-04-28T01:46:14.262Z,8.20
2019-04-28T01:47:17.858Z,8.30
2019-04-28T01:48:21.414Z,8.20
2019-04-28T01:49:25.041Z,8.20
2019-04-28T01:50:29.966Z,8.10
2019-04-28T01:51:33.603Z,8.20
2019-04-28T01:52:37.166Z,8.10
2019-04-28T01:53:40.738Z,8.10
2019-04-28T01:54:44.330Z,8.10
2019-04-28T01:55:49.531Z,8.10
2019-04-28T01:56:53.326Z,8.10
2019-04-28T01:57:56.882Z,8.20
2019-04-28T01:59:00.460Z,8.20
2019-04-28T02:00:21.395Z,8.20
2019-04-28T02:01:12.861Z,8.20
2019-04-28T02:02:16.535Z,8.20
2019-04-28T02:03:20.541Z,8.20
2019-04-28T02:04:24.309Z,8.20
2019-04-28T02:05:29.459Z,8.20
2019-04-28T02:06:33.021Z,8.20
2019-04-28T02:07:36.579Z,8.20
2019-04-28T02:08:40.242Z,8.20
2019-04-28T02:09:43.796Z,8.10
2019-04-28T02:10:47.370Z,8.10
2019-04-28T02:11:50.934Z,8.00
2019-04-28T02:12:54.522Z,8.00
2019-04-28T02:13:59.660Z,7.90
2019-04-28T02:15:03.966Z,7.90
2019-04-28T02:16:09.241Z,7.90
2019-04-28T02:17:12.736Z,8.00
2019-04-28T02:18:16.299Z,8.00
2019-04-28T02:19:20.378Z,8.00
2019-04-28T02:20:24.326Z,8.00
2019-04-28T02:21:35.368Z,8.00
2019-04-28T02:22:43.310Z,8.00
2019-04-28T02:23:46.874Z,8.10
2019-04-28T02:24:50.576Z,8.00
2019-04-28T02:25:54.193Z,8.00
2019-04-28T02:27:00.608Z,8.00
2019-04-28T02:28:03.401Z,8.00
2019-04-28T02:29:06.967Z,8.10
2019-04-28T02:30:11.760Z,8.00
2019-04-28T02:31:15.570Z,8.00
2019-04-28T02:32:21.287Z,8.00
2019-04-28T02:33:24.414Z,8.10
2019-04-28T02:34:30.782Z,8.10
2019-04-28T02:35:34.082Z,8.10
2019-04-28T02:36:40.552Z,8.10
2019-04-28T02:37:43.382Z,8.10
2019-04-28T02:38:46.945Z,8.20
2019-04-28T02:39:50.693Z,8.10
2019-04-28T02:40:54.739Z,8.20
2019-04-28T02:42:00.983Z,8.10
2019-04-28T02:43:03.536Z,8.20
2019-04-28T02:44:07.097Z,8.10
2019-04-28T02:45:11.804Z,8.10
2019-04-28T02:46:15.740Z,8.00
2019-04-28T02:47:22.035Z,8.10
2019-04-28T02:48:26.166Z,8.10
2019-04-28T02:49:31.453Z,8.10
2019-04-28T02:50:45.612Z,8.10
2019-04-28T02:51:50.851Z,8.10
2019-04-28T02:53:02.022Z,8.10
2019-04-28T02:54:05.715Z,8.20
2019-04-28T02:55:11.316Z,8.10
2019-04-28T02:56:14.583Z,8.10
2019-04-28T02:57:20.625Z,8.10
2019-04-28T02:58:23.404Z,8.10
2019-04-28T02:59:26.963Z,8.10
2019-04-28T03:00:31.674Z,8.10
2019-04-28T03:01:35.561Z,8.10
2019-04-28T03:02:41.459Z,8.10
2019-04-28T03:03:44.519Z,8.10
2019-04-28T03:04:50.669Z,8.20
2019-04-28T03:05:53.371Z,8.20
2019-04-28T03:06:56.923Z,8.20
2019-04-28T03:08:01.252Z,8.20
2019-04-28T03:09:06.858Z,8.30
2019-04-28T03:10:11.235Z,8.30
2019-04-28T03:11:15.030Z,8.20
2019-04-28T03:12:21.322Z,8.20
2019-04-28T03:13:23.812Z,8.30
2019-04-28T03:14:27.447Z,8.30
2019-04-28T03:15:31.277Z,8.20
2019-04-28T03:16:34.839Z,8.30
2019-04-28T03:17:40.681Z,8.30
2019-04-28T03:18:43.609Z,8.30
2019-04-28T03:19:47.210Z,8.30
2019-04-28T03:20:51.605Z,8.30
2019-04-28T03:21:55.722Z,8.20
2019-04-28T03:23:00.956Z,8.20
2019-04-28T03:24:04.542Z,8.20
2019-04-28T03:25:10.907Z,8.10
2019-04-28T03:26:21.899Z,8.10
2019-04-28T03:27:45.534Z,8.20
2019-04-28T03:28:51.450Z,8.20
2019-04-28T03:29:56.738Z,8.30
2019-04-28T03:31:46.944Z,8.30
2019-04-28T03:32:40.020Z,8.30
2019-04-28T03:33:34.043Z,8.30
2019-04-28T03:34:44.934Z,8.30
2019-04-28T03:35:53.086Z,8.30
2019-04-28T03:36:53.714Z,8.40
2019-04-28T03:37:57.279Z,8.40
2019-04-28T03:39:00.898Z,8.30
2019-04-28T03:40:06.342Z,8.30
2019-04-28T03:41:11.153Z,8.30
2019-04-28T03:42:15.052Z,8.30
2019-04-28T03:43:21.141Z,8.10
2019-04-28T03:44:23.831Z,8.10
2019-04-28T03:45:30.667Z,8.10
2019-04-28T03:46:36.069Z,8.10
2019-04-28T03:47:40.659Z,8.10
2019-04-28T03:48:44.610Z,8.00
2019-04-28T03:49:50.489Z,8.00
2019-04-28T03:50:53.391Z,8.10
2019-04-28T03:51:56.987Z,8.10
2019-04-28T03:53:01.139Z,8.10
2019-04-28T03:54:04.801Z,8.10
2019-04-28T03:55:08.510Z,8.00
2019-04-28T03:56:12.134Z,8.00
2019-04-28T03:57:15.729Z,8.00
2019-04-28T03:58:23.589Z,7.90
2019-04-28T03:59:25.442Z,7.90
2019-04-28T04:00:31.262Z,7.90
2019-04-28T04:01:34.315Z,7.90
2019-04-28T04:02:40.887Z,7.90
2019-04-28T04:03:43.120Z,7.90
2019-04-28T04:04:46.692Z,7.90
2019-04-28T04:05:51.055Z,7.90
2019-04-28T04:06:54.822Z,7.90
2019-04-28T04:08:00.599Z,7.90
2019-04-28T04:09:04.026Z,7.90
2019-04-28T04:10:12.715Z,7.90
2019-04-28T04:11:23.631Z,7.90
2019-04-28T04:12:30.949Z,7.90
2019-04-28T04:13:35.726Z,7.90
2019-04-28T04:14:41.280Z,8.00
2019-04-28T04:15:53.536Z,8.00
2019-04-28T04:16:56.121Z,8.00
2019-04-28T04:18:04.028Z,8.00
2019-04-28T04:19:10.592Z,7.90
2019-04-28T04:20:17.334Z,7.90
2019-04-28T04:21:21.528Z,8.00
2019-04-28T04:22:25.382Z,8.00
2019-04-28T04:23:30.858Z,8.00
2019-04-28T04:24:34.147Z,8.00
2019-04-28T04:25:37.707Z,8.00
2019-04-28T04:26:41.311Z,8.00
2019-04-28T04:27:44.874Z,8.00
2019-04-28T04:28:51.164Z,8.00
2019-04-28T04:29:53.638Z,8.10
2019-04-28T04:30:57.254Z,8.10
2019-04-28T04:32:13.462Z,8.10
2019-04-28T04:33:06.041Z,8.20
2019-04-28T04:34:10.716Z,8.20
2019-04-28T04:35:14.393Z,8.20
2019-04-28T04:36:17.956Z,8.20
2019-04-28T04:37:21.525Z,8.20
2019-04-28T04:38:25.086Z,8.20
2019-04-28T04:39:30.378Z,8.10
2019-04-28T04:40:34.041Z,8.10
2019-04-28T04:41:37.608Z,8.20
2019-04-28T04:42:41.159Z,8.20
2019-04-28T04:43:44.750Z,8.20
2019-04-28T04:44:50.157Z,8.20
2019-04-28T04:45:55.203Z,8.10
2019-04-28T04:47:00.997Z,8.10
2019-04-28T04:48:04.241Z,8.00
2019-04-28T04:49:10.521Z,8.00
2019-04-28T04:50:13.270Z,8.00
2019-04-28T04:51:16.927Z,8.00
2019-04-28T04:52:20.483Z,8.00
2019-04-28T04:53:24.046Z,8.00
2019-04-28T04:54:32.065Z,8.00
2019-04-28T04:55:32.820Z,8.00
2019-04-28T04:56:36.406Z,8.00
2019-04-28T04:57:40.782Z,8.00
2019-04-28T04:58:44.525Z,8.00
2019-04-28T04:59:49.951Z,8.10
2019-04-28T05:00:54.947Z,8.10
2019-04-28T05:02:09.963Z,8.10
2019-04-28T05:03:29.513Z,8.20
2019-04-28T05:04:43.314Z,8.10
2019-04-28T05:05:46.880Z,8.20
2019-04-28T05:06:50.438Z,8.20
2019-04-28T05:07:54.028Z,8.10
2019-04-28T05:08:57.588Z,8.20
2019-04-28T05:10:01.152Z,8.20
2019-04-28T05:11:04.710Z,8.20
2019-04-28T05:12:09.667Z,8.20
2019-04-28T05:13:13.390Z,8.20
2019-04-28T05:14:16.945Z,8.20
2019-04-28T05:15:20.518Z,8.20
2019-04-28T05:16:24.083Z,8.20
2019-04-28T05:17:27.681Z,8.20
2019-04-28T05:18:31.278Z,8.20
2019-04-28T05:19:34.841Z,8.30
2019-04-28T05:20:40.206Z,8.30
2019-04-28T05:21:43.638Z,8.30
2019-04-28T05:22:51.877Z,8.30
2019-04-28T05:24:15.952Z,8.30
2019-04-28T05:25:32.640Z,8.20
2019-04-28T05:26:36.214Z,8.20
2019-04-28T05:27:40.031Z,8.20
2019-04-28T05:28:50.606Z,8.20
2019-04-28T05:29:51.160Z,8.20
2019-04-28T05:30:54.100Z,8.20
2019-04-28T05:32:01.845Z,8.20
2019-04-28T05:33:02.862Z,8.30
2019-04-28T05:34:08.176Z,8.30
2019-04-28T05:35:11.740Z,8.30
2019-04-28T05:36:15.334Z,8.30
2019-04-28T05:37:19.479Z,8.30
2019-04-28T05:38:24.175Z,8.30
2019-04-28T05:39:29.294Z,8.30
2019-04-28T05:40:32.935Z,8.30
2019-04-28T05:41:36.610Z,8.30
2019-04-28T05:42:41.857Z,8.40
2019-04-28T05:43:45.415Z,8.40
2019-04-28T05:44:49.679Z,8.40
2019-04-28T05:45:53.383Z,8.40
2019-04-28T05:46:56.942Z,8.40
2019-04-28T05:48:00.939Z,8.40
2019-04-28T05:49:06.254Z,8.40
2019-04-28T05:50:11.527Z,8.50
2019-04-28T05:51:16.726Z,8.50
2019-04-28T05:52:29.530Z,8.50
2019-04-28T05:53:34.767Z,8.50
2019-04-28T05:54:40.355Z,8.50
2019-04-28T05:55:45.615Z,8.50
2019-04-28T05:57:07.278Z,8.60
2019-04-28T05:58:15.438Z,8.60
2019-04-28T05:59:21.401Z,8.50
2019-04-28T06:00:35.375Z,8.50
2019-04-28T06:02:00.504Z,8.50
2019-04-28T06:03:05.456Z,8.50
2019-04-28T06:04:09.613Z,8.50
2019-04-28T06:05:14.293Z,8.50
2019-04-28T06:06:20.452Z,8.50
2019-04-28T06:07:25.670Z,8.50
2019-04-28T06:08:33.635Z,8.50
2019-04-28T06:09:39.842Z,8.60
2019-04-28T06:10:43.554Z,8.60
2019-04-28T06:11:47.147Z,8.60
2019-04-28T06:12:50.719Z,8.70
2019-04-28T06:13:54.287Z,8.70
2019-04-28T06:14:57.842Z,8.70
2019-04-28T06:16:01.442Z,8.60
2019-04-28T06:17:05.028Z,8.60
2019-04-28T06:18:10.326Z,8.70
2019-04-28T06:19:13.796Z,8.70
2019-04-28T06:20:17.359Z,8.70
2019-04-28T06:21:20.997Z,8.80
2019-04-28T06:22:24.519Z,8.80
2019-04-28T06:23:28.087Z,8.90
2019-04-28T06:24:31.654Z,9.00
2019-04-28T06:25:35.250Z,9.00
2019-04-28T06:26:38.884Z,9.00
2019-04-28T06:27:42.451Z,9.10
2019-04-28T06:28:46.115Z,9.10
2019-04-28T06:29:49.679Z,9.10
2019-04-28T06:30:53.242Z,9.20
2019-04-28T06:31:56.897Z,9.30
2019-04-28T06:33:07.536Z,9.30
2019-04-28T06:34:05.778Z,9.30
2019-04-28T06:35:09.342Z,9.30
2019-04-28T06:36:12.903Z,9.20
2019-04-28T06:37:16.470Z,9.20
2019-04-28T06:38:20.033Z,9.20
2019-04-28T06:39:23.637Z,9.20
2019-04-28T06:40:27.203Z,9.30
2019-04-28T06:41:30.870Z,9.40
2019-04-28T06:42:34.434Z,9.40
2019-04-28T06:43:37.989Z,9.50
2019-04-28T06:44:41.578Z,9.60
2019-04-28T06:45:45.143Z,9.70
2019-04-28T06:46:49.641Z,9.70
2019-04-28T06:47:53.237Z,9.80
2019-04-28T06:48:56.804Z,9.80
2019-04-28T06:50:00.403Z,9.70
2019-04-28T06:51:03.967Z,9.70
2019-04-28T06:52:07.573Z,9.70
2019-04-28T06:53:11.152Z,9.60
2019-04-28T06:54:14.782Z,9.60
2019-04-28T06:55:18.354Z,9.60
2019-04-28T06:56:21.944Z,9.60
2019-04-28T06:57:25.660Z,9.70
2019-04-28T06:58:29.481Z,9.80
2019-04-28T06:59:33.046Z,9.80
2019-04-28T07:00:36.597Z,9.80
2019-04-28T07:01:40.267Z,9.80
2019-04-28T07:02:43.831Z,9.80
2019-04-28T07:03:47.393Z,9.80
2019-04-28T07:05:01.128Z,9.80
2019-04-28T07:05:56.189Z,9.80
2019-04-28T07:06:59.755Z,9.90
2019-04-28T07:08:03.410Z,10.00
2019-04-28T07:09:07.503Z,10.10
2019-04-28T07:10:11.486Z,10.20
2019-04-28T07:11:15.020Z,10.40
2019-04-28T07:12:18.621Z,10.50
2019-04-28T07:13:22.234Z,10.60
2019-04-28T07:14:25.815Z,10.70
2019-04-28T07:15:29.364Z,10.70
2019-04-28T07:16:32.994Z,10.60
2019-04-28T07:17:36.565Z,10.60
2019-04-28T07:18:40.251Z,10.60
2019-04-28T07:19:45.449Z,10.60
2019-04-28T07:21:02.325Z,10.60
2019-04-28T07:22:09.986Z,10.70
2019-04-28T07:23:13.552Z,10.70
2019-04-28T07:24:17.170Z,10.80
2019-04-28T07:25:20.730Z,10.80
2019-04-28T07:26:24.313Z,10.70
2019-04-28T07:27:27.887Z,10.70
2019-04-28T07:28:31.509Z,10.60
2019-04-28T07:29:35.126Z,10.60
2019-04-28T07:30:40.535Z,10.60
2019-04-28T07:31:44.267Z,10.50
2019-04-28T07:32:47.928Z,10.50
2019-04-28T07:33:51.466Z,10.40
2019-04-28T07:34:55.073Z,10.30
2019-04-28T07:35:58.679Z,10.30
2019-04-28T07:37:02.302Z,10.30
2019-04-28T07:38:05.858Z,10.40
2019-04-28T07:39:09.422Z,10.30
2019-04-28T07:40:13.128Z,10.40
2019-04-28T07:41:16.685Z,10.30
2019-04-28T07:42:20.293Z,10.30
2019-04-28T07:43:23.899Z,10.40
2019-04-28T07:44:27.490Z,10.40
2019-04-28T07:45:31.126Z,10.40
2019-04-28T07:46:34.698Z,10.30
2019-04-28T07:47:38.274Z,10.30
2019-04-28T07:48:41.874Z,10.30
2019-04-28T07:49:45.454Z,10.30
2019-04-28T07:50:49.090Z,10.30
2019-04-28T07:52:09.382Z,10.30
2019-04-28T07:53:14.585Z,10.40
2019-04-28T07:54:22.025Z,10.30
2019-04-28T07:55:25.966Z,10.30
2019-04-28T07:56:29.593Z,10.30
2019-04-28T07:57:33.157Z,10.30
2019-04-28T07:58:36.757Z,10.30
2019-04-28T07:59:40.318Z,10.30
2019-04-28T08:00:43.878Z,10.20
2019-04-28T08:01:47.727Z,10.20
2019-04-28T08:02:51.297Z,10.20
2019-04-28T08:03:57.445Z,10.20
2019-04-28T08:05:00.110Z,10.20
2019-04-28T08:06:03.747Z,10.10
2019-04-28T08:07:07.305Z,10.00
2019-04-28T08:08:10.874Z,10.00
2019-04-28T08:09:16.078Z,10.00
2019-04-28T08:10:19.682Z,10.00
2019-04-28T08:11:23.259Z,10.00
2019-04-28T08:12:26.886Z,10.10
2019-04-28T08:13:30.462Z,10.10
2019-04-28T08:14:34.054Z,10.20
2019-04-28T08:15:37.623Z,10.20
2019-04-28T08:16:41.190Z,10.30
2019-04-28T08:17:44.825Z,10.30
2019-04-28T08:18:48.430Z,10.30
2019-04-28T08:19:52.032Z,10.40
2019-04-28T08:20:55.668Z,10.50
2019-04-28T08:21:59.363Z,10.60
2019-04-28T08:23:02.929Z,10.70
2019-04-28T08:24:06.495Z,10.70
2019-04-28T08:25:11.634Z,10.60
2019-04-28T08:26:15.202Z,10.70
2019-04-28T08:27:18.775Z,10.60
2019-04-28T08:28:22.344Z,10.60
2019-04-28T08:29:25.942Z,10.60
2019-04-28T08:30:29.637Z,10.60
2019-04-28T08:31:43.551Z,10.60
2019-04-28T08:32:54.459Z,10.70
2019-04-28T08:34:03.034Z,10.70
2019-04-28T08:35:07.927Z,10.60
2019-04-28T08:36:11.494Z,10.60
2019-04-28T08:37:15.066Z,10.60
2019-04-28T08:38:18.626Z,10.50
2019-04-28T08:39:25.103Z,10.50
2019-04-28T08:40:27.451Z,10.50
2019-04-28T08:41:31.015Z,10.50
2019-04-28T08:42:34.578Z,10.60
2019-04-28T08:43:38.142Z,10.60
2019-04-28T08:44:41.712Z,10.60
2019-04-28T08:45:45.315Z,10.70
2019-04-28T08:46:48.882Z,10.60
2019-04-28T08:47:52.454Z,10.60
2019-04-28T08:48:56.020Z,10.60
2019-04-28T08:49:59.588Z,10.60
2019-04-28T08:51:03.349Z,10.60
2019-04-28T08:52:06.913Z,10.60
2019-04-28T08:53:10.477Z,10.60
2019-04-28T08:54:14.106Z,10.60
2019-04-28T08:55:17.675Z,10.70
2019-04-28T08:56:21.297Z,10.70
2019-04-28T08:57:25.003Z,10.90
2019-04-28T08:58:28.558Z,11.00
2019-04-28T08:59:32.121Z,11.10
2019-04-28T09:00:35.754Z,11.30
2019-04-28T09:01:39.415Z,11.40
2019-04-28T09:02:42.978Z,11.50
2019-04-28T09:03:46.574Z,11.60
2019-04-28T09:04:50.147Z,11.70
2019-04-28T09:05:53.714Z,11.90
2019-04-28T09:06:57.317Z,11.80
2019-04-28T09:08:00.914Z,11.80
2019-04-28T09:09:07.053Z,11.80
2019-04-28T09:10:11.235Z,11.80
2019-04-28T09:11:14.819Z,11.80
2019-04-28T09:12:18.510Z,11.80
2019-04-28T09:13:22.078Z,11.90
2019-04-28T09:14:25.717Z,12.00
2019-04-28T09:15:29.279Z,12.10
2019-04-28T09:16:32.856Z,12.10
2019-04-28T09:17:36.470Z,12.10
2019-04-28T09:18:40.030Z,12.10
2019-04-28T09:19:43.599Z,12.20
2019-04-28T09:20:47.197Z,12.40
2019-04-28T09:21:50.763Z,12.70
2019-04-28T09:22:54.321Z,12.90
2019-04-28T09:23:57.893Z,13.20
2019-04-28T09:25:01.471Z,13.50
2019-04-28T09:26:05.138Z,13.70
2019-04-28T09:27:08.706Z,13.70
2019-04-28T09:28:12.274Z,13.60
2019-04-28T09:29:15.870Z,13.60
2019-04-28T09:30:19.434Z,13.60
2019-04-28T09:31:23.031Z,13.40
2019-04-28T09:32:26.594Z,13.30
2019-04-28T09:33:30.194Z,13.20
2019-04-28T09:34:33.763Z,13.10
2019-04-28T09:35:37.331Z,13.00
2019-04-28T09:36:40.927Z,13.00
2019-04-28T09:37:44.494Z,12.90
2019-04-28T09:38:48.064Z,13.00
2019-04-28T09:39:53.322Z,13.00
2019-04-28T09:40:56.887Z,13.10
2019-04-28T09:42:18.373Z,13.10
2019-04-28T09:43:23.590Z,13.20
2019-04-28T09:44:27.149Z,13.30
2019-04-28T09:45:41.367Z,13.50
2019-04-28T09:46:46.581Z,13.70
2019-04-28T09:47:50.147Z,13.90
2019-04-28T09:48:53.713Z,13.90
2019-04-28T09:49:57.407Z,14.00
2019-04-28T09:51:00.965Z,14.10
2019-04-28T09:52:04.533Z,14.00
2019-04-28T09:53:08.097Z,14.00
2019-04-28T09:54:11.662Z,13.90
2019-04-28T09:55:15.276Z,13.90
2019-04-28T09:56:18.839Z,14.00
2019-04-28T09:57:22.442Z,14.20
2019-04-28T09:58:26.006Z,14.30
2019-04-28T09:59:29.578Z,14.10
2019-04-28T10:00:33.814Z,14.00
2019-04-28T10:01:37.423Z,14.00
2019-04-28T10:02:40.993Z,14.10
2019-04-28T10:03:44.550Z,14.00
2019-04-28T10:04:48.150Z,13.90
2019-04-28T10:05:51.740Z,13.90
2019-04-28T10:06:55.300Z,13.80
2019-04-28T10:07:58.911Z,14.00
2019-04-28T10:09:02.474Z,14.00
2019-04-28T10:10:08.585Z,14.10
2019-04-28T10:11:12.145Z,14.20
2019-04-28T10:12:26.600Z,14.30
2019-04-28T10:13:20.963Z,14.30
2019-04-28T10:14:25.106Z,14.20
2019-04-28T10:15:28.741Z,14.30
2019-04-28T10:16:32.320Z,14.50
2019-04-28T10:17:35.890Z,14.50
2019-04-28T10:18:39.456Z,14.70
2019-04-28T10:19:43.066Z,14.60
2019-04-28T10:20:46.625Z,14.70
2019-04-28T10:21:50.244Z,14.60
2019-04-28T10:22:53.834Z,14.60
2019-04-28T10:23:57.402Z,14.60
2019-04-28T10:25:00.968Z,14.80
2019-04-28T10:26:04.598Z,15.00
2019-04-28T10:27:08.438Z,15.10
2019-04-28T10:28:11.990Z,15.20
2019-04-28T10:29:15.559Z,15.40
2019-04-28T10:30:19.665Z,15.50
2019-04-28T10:31:23.277Z,15.70
2019-04-28T10:32:26.915Z,15.90
2019-04-28T10:33:30.487Z,16.10
2019-04-28T10:34:34.050Z,15.90
2019-04-28T10:35:37.616Z,15.80
2019-04-28T10:36:41.215Z,15.70
2019-04-28T10:37:45.636Z,15.70
2019-04-28T10:38:51.035Z,15.70
2019-04-28T10:39:56.232Z,15.60
2019-04-28T10:41:01.442Z,15.80
2019-04-28T10:42:05.691Z,15.90
2019-04-28T10:43:09.256Z,15.80
2019-04-28T10:44:12.858Z,15.80
2019-04-28T10:45:18.059Z,15.60
2019-04-28T10:46:21.631Z,15.60
2019-04-28T10:47:25.262Z,15.50
2019-04-28T10:48:28.859Z,15.40
2019-04-28T10:49:32.425Z,15.30
2019-04-28T10:50:35.990Z,15.30
2019-04-28T10:51:39.632Z,15.20
2019-04-28T10:52:43.194Z,15.30
2019-04-28T10:53:46.810Z,15.50
2019-04-28T10:54:50.379Z,15.50
2019-04-28T10:55:53.937Z,15.40
2019-04-28T10:56:57.497Z,15.20
2019-04-28T10:58:01.069Z,15.10
2019-04-28T10:59:04.802Z,15.00
2019-04-28T11:00:09.978Z,14.90
2019-04-28T11:01:13.688Z,15.00
2019-04-28T11:02:17.290Z,15.00
2019-04-28T11:03:20.852Z,15.10
2019-04-28T11:04:40.934Z,15.10
2019-04-28T11:05:45.412Z,15.00
2019-04-28T11:06:49.101Z,14.80
2019-04-28T11:07:53.774Z,14.70
2019-04-28T11:09:01.930Z,14.60
2019-04-28T11:10:08.982Z,14.40
2019-04-28T11:11:14.235Z,14.30
2019-04-28T11:12:22.147Z,14.20
2019-04-28T11:13:26.178Z,14.20
2019-04-28T11:14:29.747Z,14.20
2019-04-28T11:15:34.991Z,14.40
2019-04-28T11:16:38.628Z,14.50
2019-04-28T11:17:42.190Z,14.60
2019-04-28T11:18:45.803Z,14.70
2019-04-28T11:19:49.356Z,14.80
2019-04-28T11:20:52.962Z,14.80
2019-04-28T11:21:56.541Z,14.80
2019-04-28T11:23:00.095Z,14.50
2019-04-28T11:24:03.827Z,14.50
2019-04-28T11:25:07.834Z,14.40
2019-04-28T11:26:11.439Z,14.30
2019-04-28T11:27:16.278Z,14.20
2019-04-28T11:28:19.846Z,13.90
2019-04-28T11:29:23.478Z,13.80
2019-04-28T11:30:28.722Z,13.70
2019-04-28T11:31:32.325Z,13.70
2019-04-28T11:32:36.228Z,13.70
2019-04-28T11:33:41.502Z,13.70
2019-04-28T11:34:58.974Z,13.80
2019-04-28T11:36:02.571Z,13.90
2019-04-28T11:37:06.219Z,14.00
2019-04-28T11:38:09.781Z,13.90
2019-04-28T11:39:15.071Z,14.00
2019-04-28T11:40:18.626Z,14.00
2019-04-28T11:41:22.234Z,14.00
2019-04-28T11:42:25.803Z,14.10
2019-04-28T11:43:29.373Z,14.20
2019-04-28T11:44:32.942Z,14.30
2019-04-28T11:45:36.502Z,14.40
2019-04-28T11:46:40.119Z,14.30
2019-04-28T11:47:43.761Z,14.40
2019-04-28T11:48:47.315Z,14.40
2019-04-28T11:49:50.881Z,14.50
2019-04-28T11:50:54.445Z,14.50
2019-04-28T11:51:58.055Z,14.50
2019-04-28T11:53:01.815Z,14.60
2019-04-28T11:54:05.451Z,14.60
2019-04-28T11:55:09.263Z,14.70
2019-04-28T11:56:12.896Z,14.70
2019-04-28T11:57:16.501Z,14.80
2019-04-28T11:58:20.062Z,14.80
2019-04-28T11:59:23.621Z,14.90
2019-04-28T12:00:28.905Z,15.00
2019-04-28T12:01:32.499Z,15.00
2019-04-28T12:02:36.066Z,15.10
2019-04-28T12:03:39.688Z,15.30
2019-04-28T12:04:43.251Z,15.40
2019-04-28T12:05:47.578Z,15.40
2019-04-28T12:06:51.155Z,15.50
2019-04-28T12:07:54.715Z,15.50
2019-04-28T12:08:59.960Z,15.60
2019-04-28T12:10:11.797Z,15.60
2019-04-28T12:11:26.012Z,15.50
2019-04-28T12:12:37.025Z,15.50
2019-04-28T12:13:48.274Z,15.40
2019-04-28T12:15:11.311Z,15.40
2019-04-28T12:16:16.552Z,15.60
2019-04-28T12:17:38.381Z,15.60
2019-04-28T12:18:43.583Z,15.50
2019-04-28T12:19:48.786Z,15.50
2019-04-28T12:20:52.354Z,15.50
2019-04-28T12:21:56.022Z,15.70
2019-04-28T12:22:59.586Z,15.70
2019-04-28T12:24:03.160Z,15.70
2019-04-28T12:25:08.297Z,15.70
2019-04-28T12:26:11.794Z,15.80
2019-04-28T12:27:15.368Z,15.80
2019-04-28T12:28:18.960Z,15.90
2019-04-28T12:29:22.562Z,15.90
2019-04-28T12:30:26.125Z,16.00
2019-04-28T12:31:29.690Z,15.90
2019-04-28T12:32:33.261Z,15.90
2019-04-28T12:33:36.842Z,16.00
2019-04-28T12:34:40.445Z,15.80
2019-04-28T12:35:47.901Z,15.90
2019-04-28T12:36:49.224Z,15.80
2019-04-28T12:37:52.820Z,15.80
2019-04-28T12:38:56.386Z,15.70
2019-04-28T12:39:59.970Z,15.60
2019-04-28T12:41:03.603Z,15.40
2019-04-28T12:42:07.240Z,15.40
2019-04-28T12:43:10.830Z,15.30
2019-04-28T12:44:14.394Z,15.30
2019-04-28T12:45:17.984Z,15.30
2019-04-28T12:46:21.583Z,15.10
2019-04-28T12:47:25.138Z,14.90
2019-04-28T12:48:28.706Z,14.90
2019-04-28T12:49:42.450Z,14.80
2019-04-28T12:50:53.015Z,14.80
2019-04-28T12:51:56.646Z,14.80
2019-04-28T12:53:00.212Z,14.80
2019-04-28T12:54:05.413Z,14.60
2019-04-28T12:55:09.082Z,14.60
2019-04-28T12:56:13.317Z,14.50
2019-04-28T12:57:16.881Z,14.60
2019-04-28T12:58:20.447Z,14.60
2019-04-28T12:59:25.723Z,14.70
2019-04-28T13:00:30.954Z,14.70
2019-04-28T13:01:36.168Z,14.60
2019-04-28T13:02:44.155Z,14.80
2019-04-28T13:04:05.416Z,14.70
2019-04-28T13:05:10.848Z,14.80
2019-04-28T13:06:19.024Z,14.70
2019-04-28T13:07:22.586Z,14.70
2019-04-28T13:08:26.173Z,14.60
2019-04-28T13:09:29.990Z,14.70
2019-04-28T13:10:33.618Z,14.60
2019-04-28T13:11:37.181Z,14.70
2019-04-28T13:12:40.752Z,14.80
2019-04-28T13:13:46.777Z,14.80
2019-04-28T13:14:49.576Z,14.90
2019-04-28T13:15:53.139Z,14.90
2019-04-28T13:16:56.701Z,15.00
2019-04-28T13:18:00.266Z,15.10
2019-04-28T13:19:03.826Z,15.10
2019-04-28T13:20:07.562Z,15.20
2019-04-28T13:21:11.121Z,15.20
2019-04-28T13:22:14.714Z,15.10
2019-04-28T13:23:18.283Z,15.10
2019-04-28T13:24:21.861Z,15.10
2019-04-28T13:25:25.427Z,15.20
2019-04-28T13:26:29.024Z,15.30
2019-04-28T13:27:32.606Z,15.40
2019-04-28T13:28:36.215Z,15.50
2019-04-28T13:29:39.742Z,15.50
2019-04-28T13:30:43.711Z,15.50
2019-04-28T13:31:47.273Z,15.50
2019-04-28T13:32:50.846Z,15.60
2019-04-28T13:33:56.654Z,15.60
2019-04-28T13:34:59.838Z,15.60
2019-04-28T13:36:14.144Z,15.60
2019-04-28T13:37:09.295Z,15.50
2019-04-28T13:38:12.871Z,15.50
2019-04-28T13:39:26.870Z,15.50
2019-04-28T13:40:32.078Z,15.40
2019-04-28T13:41:37.416Z,15.40
2019-04-28T13:42:40.854Z,15.10
2019-04-28T13:43:44.428Z,15.00
2019-04-28T13:44:49.658Z,15.00
2019-04-28T13:45:53.223Z,14.90
2019-04-28T13:46:56.823Z,15.00
2019-04-28T13:48:00.388Z,14.80
2019-04-28T13:49:05.739Z,14.60
2019-04-28T13:50:14.685Z,14.50
2019-04-28T13:51:18.281Z,14.60
2019-04-28T13:52:21.856Z,14.50
2019-04-28T13:53:25.427Z,14.50
2019-04-28T13:54:29.018Z,14.50
2019-04-28T13:55:46.426Z,14.50
2019-04-28T13:56:50.007Z,14.40
2019-04-28T13:57:53.553Z,14.30
2019-04-28T13:58:58.765Z,14.30
2019-04-28T14:00:06.998Z,14.20
2019-04-28T14:01:24.581Z,14.10
2019-04-28T14:02:32.670Z,14.20
2019-04-28T14:03:55.891Z,14.20
2019-04-28T14:05:10.175Z,14.20
2019-04-28T14:06:27.559Z,14.20
2019-04-28T14:07:20.605Z,14.20
2019-04-28T14:08:24.165Z,14.20
2019-04-28T14:09:27.744Z,14.30